createdAt,value
2017-09-08T00:00:24.987Z,23.20
2017-09-08T00:03:26.298Z,23.03
2017-09-08T00:06:27.640Z,27.60
2017-09-08T00:09:33.030Z,24.83
2017-09-08T00:12:34.370Z,27.43
2017-09-08T00:15:35.696Z,31.87
2017-09-08T00:18:37.044Z,29.57
2017-09-08T00:21:38.349Z,25.20
2017-09-08T00:24:39.686Z,30.20
2017-09-08T00:27:40.984Z,26.90
2017-09-08T00:30:42.362Z,24.87
2017-09-08T00:33:43.698Z,25.40
2017-09-08T00:36:45.068Z,27.07
2017-09-08T00:39:46.431Z,26.73
2017-09-08T00:42:47.769Z,32.43
2017-09-08T00:45:49.128Z,39.30
2017-09-08T00:48:50.466Z,22.33
2017-09-08T00:51:51.948Z,29.23
2017-09-08T00:54:53.231Z,33.93
2017-09-08T00:57:55.261Z,21.50
2017-09-08T01:00:56.527Z,24.33
2017-09-08T01:03:58.578Z,30.23
2017-09-08T01:06:59.847Z,36.77
2017-09-08T01:10:01.898Z,30.93
2017-09-08T01:13:03.134Z,21.03
2017-09-08T01:16:04.446Z,28.90
2017-09-08T01:19:05.770Z,34.77
2017-09-08T01:22:07.791Z,26.50
2017-09-08T01:25:09.039Z,22.67
2017-09-08T01:28:10.434Z,30.53
2017-09-08T01:31:12.437Z,26.40
2017-09-08T01:34:13.695Z,25.17
2017-09-08T01:37:14.958Z,28.97
2017-09-08T01:40:16.230Z,25.43
2017-09-08T01:43:18.201Z,22.97
2017-09-08T01:46:20.247Z,41.30
2017-09-08T01:49:21.495Z,25.93
2017-09-08T01:52:22.813Z,28.67
2017-09-08T01:55:24.054Z,21.87
2017-09-08T01:58:25.338Z,21.93
2017-09-08T02:01:26.590Z,29.53
2017-09-08T02:04:27.878Z,30.77
2017-09-08T02:07:29.150Z,34.23
2017-09-08T02:10:30.670Z,33.27
2017-09-08T02:13:31.918Z,30.93
2017-09-08T02:16:33.178Z,21.10
2017-09-08T02:19:34.453Z,26.93
2017-09-08T02:22:35.765Z,30.80
2017-09-08T02:25:37.790Z,26.80
2017-09-08T02:28:39.067Z,23.90
2017-09-08T02:31:41.081Z,41.13
2017-09-08T02:34:42.374Z,23.00
2017-09-08T02:37:44.373Z,29.00
2017-09-08T02:40:45.638Z,28.70
2017-09-08T02:43:46.910Z,33.83
2017-09-08T02:46:48.213Z,32.57
2017-09-08T02:49:49.448Z,30.70
2017-09-08T02:52:58.443Z,27.70
2017-09-08T02:55:59.674Z,26.67
2017-09-08T02:59:00.973Z,24.77
2017-09-08T03:02:02.997Z,26.27
2017-09-08T03:05:04.523Z,28.30
2017-09-08T03:08:05.790Z,28.83
2017-09-08T03:11:07.070Z,23.57
2017-09-08T03:14:09.098Z,18.97
2017-09-08T03:17:10.373Z,23.53
2017-09-08T03:20:11.615Z,19.20
2017-09-08T03:23:12.933Z,25.27
2017-09-08T03:26:14.176Z,22.50
2017-09-08T03:29:15.486Z,21.47
2017-09-08T03:32:17.489Z,33.63
2017-09-08T03:35:18.762Z,26.13
2017-09-08T03:38:20.271Z,21.13
2017-09-08T03:41:21.503Z,28.83
2017-09-08T03:44:23.558Z,22.77
2017-09-08T03:47:24.807Z,24.87
2017-09-08T03:50:26.850Z,22.13
2017-09-08T03:53:28.114Z,22.10
2017-09-08T03:56:29.387Z,20.87
2017-09-08T03:59:31.389Z,18.27
2017-09-08T04:02:32.690Z,29.07
2017-09-08T04:05:34.674Z,22.17
2017-09-08T04:08:36.670Z,33.17
2017-09-08T04:11:37.920Z,18.97
2017-09-08T04:14:39.238Z,25.77
2017-09-08T04:17:40.512Z,26.73
2017-09-08T04:20:41.790Z,21.70
2017-09-08T04:23:43.031Z,26.07
2017-09-08T04:26:44.310Z,20.37
2017-09-08T04:29:45.554Z,15.13
2017-09-08T04:32:47.600Z,22.77
2017-09-08T04:35:49.006Z,17.87
2017-09-08T04:38:50.262Z,31.13
2017-09-08T04:41:51.515Z,27.67
2017-09-08T04:44:52.823Z,18.77
2017-09-08T04:47:54.857Z,21.30
2017-09-08T04:50:56.091Z,18.30
2017-09-08T04:53:57.504Z,16.60
2017-09-08T04:56:59.526Z,24.13
2017-09-08T05:00:00.862Z,20.23
2017-09-08T05:03:02.163Z,28.37
2017-09-08T05:06:04.334Z,13.03
2017-09-08T05:09:05.630Z,19.43
2017-09-08T05:12:06.936Z,26.43
2017-09-08T05:15:16.078Z,21.00
2017-09-08T05:18:17.365Z,17.30
2017-09-08T05:21:18.603Z,17.60
2017-09-08T05:24:19.920Z,25.07
2017-09-08T05:27:21.210Z,18.90
2017-09-08T05:30:22.474Z,15.83
2017-09-08T05:33:23.707Z,29.97
2017-09-08T05:36:25.006Z,13.23
2017-09-08T05:39:27.137Z,21.33
2017-09-08T05:42:28.389Z,23.37
2017-09-08T05:45:29.742Z,16.73
2017-09-08T05:48:31.006Z,22.77
2017-09-08T05:51:33.078Z,31.97
2017-09-08T05:54:35.063Z,29.50
2017-09-08T05:57:36.629Z,16.40
2017-09-08T06:00:37.918Z,20.40
2017-09-08T06:03:39.190Z,17.40
2017-09-08T06:06:41.190Z,23.87
2017-09-08T06:09:42.482Z,8.13
2017-09-08T06:12:43.769Z,15.93
2017-09-08T06:15:45.918Z,16.97
2017-09-08T06:18:47.929Z,23.13
2017-09-08T06:21:49.202Z,14.30
2017-09-08T06:24:50.469Z,18.70
2017-09-08T06:27:51.951Z,11.63
2017-09-08T06:30:53.920Z,19.20
2017-09-08T06:33:55.206Z,21.00
2017-09-08T06:36:56.474Z,10.27
2017-09-08T06:39:57.746Z,19.60
2017-09-08T06:42:59.750Z,12.70
2017-09-08T06:46:01.046Z,9.00
2017-09-08T06:49:02.530Z,27.60
2017-09-08T06:52:04.530Z,16.00
2017-09-08T06:55:05.845Z,15.17
2017-09-08T06:58:07.826Z,12.80
2017-09-08T07:01:09.138Z,22.23
2017-09-08T07:04:11.157Z,15.13
2017-09-08T07:07:12.554Z,18.63
2017-09-08T07:10:13.826Z,15.40
2017-09-08T07:13:15.094Z,22.70
2017-09-08T07:16:16.330Z,19.57
2017-09-08T07:19:17.663Z,15.03
2017-09-08T07:22:18.943Z,13.90
2017-09-08T07:25:20.247Z,18.27
2017-09-08T07:28:21.525Z,13.57
2017-09-08T07:31:22.797Z,16.07
2017-09-08T07:34:24.522Z,17.30
2017-09-08T07:37:26.529Z,22.33
2017-09-08T07:40:27.809Z,24.47
2017-09-08T07:43:29.061Z,13.00
2017-09-08T07:46:31.099Z,24.50
2017-09-08T07:49:32.334Z,12.10
2017-09-08T07:52:33.591Z,15.30
2017-09-08T07:55:34.838Z,10.90
2017-09-08T07:58:36.142Z,20.67
2017-09-08T08:01:38.111Z,14.50
2017-09-08T08:04:39.401Z,13.70
2017-09-08T08:07:40.662Z,14.03
2017-09-08T08:10:41.965Z,19.97
2017-09-08T08:13:43.207Z,24.07
2017-09-08T08:16:44.506Z,19.13
2017-09-08T08:19:46.515Z,12.30
2017-09-08T08:22:47.813Z,19.40
2017-09-08T08:25:49.087Z,13.97
2017-09-08T08:28:50.358Z,11.20
2017-09-08T08:31:52.351Z,26.73
2017-09-08T08:34:53.619Z,16.83
2017-09-08T08:37:54.882Z,13.63
2017-09-08T08:40:56.150Z,13.93
2017-09-08T08:43:58.562Z,23.67
2017-09-08T08:46:59.838Z,19.60
2017-09-08T08:50:01.110Z,22.77
2017-09-08T08:53:02.373Z,20.27
2017-09-08T08:56:04.406Z,17.83
2017-09-08T08:59:05.662Z,19.40
2017-09-08T09:02:06.935Z,20.60
2017-09-08T09:05:09.122Z,8.50
2017-09-08T09:08:10.381Z,21.37
2017-09-08T09:11:11.755Z,17.53
2017-09-08T09:14:12.993Z,21.10
2017-09-08T09:17:14.246Z,13.73
2017-09-08T09:20:15.514Z,7.53
2017-09-08T09:23:16.791Z,8.80
2017-09-08T09:26:18.836Z,11.33
2017-09-08T09:29:20.123Z,17.73
2017-09-08T09:32:21.389Z,15.97
2017-09-08T09:35:22.691Z,15.27
2017-09-08T09:38:23.930Z,9.83
2017-09-08T09:41:25.225Z,10.70
2017-09-08T09:44:26.530Z,16.30
2017-09-08T09:47:27.877Z,17.37
2017-09-08T09:50:29.110Z,11.87
2017-09-08T09:53:31.151Z,16.20
2017-09-08T09:56:32.384Z,24.37
2017-09-08T09:59:33.655Z,14.30
2017-09-08T10:02:35.046Z,20.37
2017-09-08T10:05:36.278Z,9.77
2017-09-08T10:08:37.634Z,7.43
2017-09-08T10:11:38.885Z,15.53
2017-09-08T10:14:40.160Z,11.17
2017-09-08T10:17:41.457Z,11.87
2017-09-08T10:20:43.079Z,15.87
2017-09-08T10:23:44.342Z,17.30
2017-09-08T10:26:45.633Z,13.57
2017-09-08T10:29:46.871Z,10.73
2017-09-08T10:32:48.190Z,17.50
2017-09-08T10:35:49.433Z,12.50
2017-09-08T10:38:50.826Z,7.00
2017-09-08T10:41:52.082Z,8.63
2017-09-08T10:44:53.374Z,11.60
2017-09-08T10:47:54.632Z,13.70
2017-09-08T10:50:56.046Z,19.40
2017-09-08T10:53:58.059Z,16.03
2017-09-08T10:56:59.314Z,7.93
2017-09-08T11:00:00.550Z,8.63
2017-09-08T11:03:01.811Z,15.80
2017-09-08T11:06:03.043Z,14.43
2017-09-08T11:09:05.085Z,10.03
2017-09-08T11:12:07.110Z,6.47
2017-09-08T11:15:08.369Z,12.37
2017-09-08T11:18:09.666Z,12.13
2017-09-08T11:21:10.919Z,6.90
2017-09-08T11:24:12.929Z,11.17
2017-09-08T11:27:14.202Z,7.87
2017-09-08T11:30:16.226Z,7.87
2017-09-08T11:33:23.770Z,7.10
2017-09-08T11:36:31.942Z,12.63
2017-09-08T11:39:33.278Z,10.60
2017-09-08T11:42:34.565Z,9.67
2017-09-08T11:45:35.909Z,7.30
2017-09-08T11:48:37.151Z,7.70
2017-09-08T11:51:38.449Z,6.57
2017-09-08T11:54:40.454Z,10.40
2017-09-08T11:57:41.719Z,7.43
2017-09-08T12:00:43.019Z,10.43
2017-09-08T12:03:44.274Z,9.63
2017-09-08T12:06:45.526Z,6.90
2017-09-08T12:09:46.779Z,9.73
2017-09-08T12:12:48.258Z,8.87
2017-09-08T12:15:49.530Z,14.60
2017-09-08T12:18:50.778Z,6.70
2017-09-08T12:21:52.053Z,8.67
2017-09-08T12:24:54.050Z,8.23
2017-09-08T12:27:55.303Z,6.50
2017-09-08T12:30:56.615Z,6.43
2017-09-08T12:33:58.678Z,10.20
2017-09-08T12:37:00.691Z,10.03
2017-09-08T12:40:02.102Z,13.13
2017-09-08T12:43:03.370Z,6.53
2017-09-08T12:46:04.718Z,9.60
2017-09-08T12:49:05.958Z,7.27
2017-09-08T12:52:07.246Z,5.00
2017-09-08T12:55:08.498Z,12.27
2017-09-08T12:58:09.818Z,3.57
2017-09-08T13:01:11.067Z,6.33
2017-09-08T13:04:12.335Z,4.23
2017-09-08T13:07:13.583Z,8.87
2017-09-08T13:10:14.873Z,7.00
2017-09-08T13:13:16.868Z,15.03
2017-09-08T13:16:18.219Z,8.50
2017-09-08T13:19:19.863Z,9.63
2017-09-08T13:22:21.122Z,3.27
2017-09-08T13:25:22.382Z,8.57
2017-09-08T13:28:23.634Z,6.90
2017-09-08T13:31:24.939Z,5.30
2017-09-08T13:34:26.949Z,6.47
2017-09-08T13:37:28.221Z,6.43
2017-09-08T13:40:29.497Z,8.50
2017-09-08T13:43:31.482Z,3.73
2017-09-08T13:46:32.750Z,2.77
2017-09-08T13:49:33.994Z,5.93
2017-09-08T13:52:35.230Z,2.97
2017-09-08T13:55:36.516Z,3.20
2017-09-08T13:58:37.758Z,2.57
2017-09-08T14:01:39.030Z,3.23
2017-09-08T14:04:40.313Z,2.70
2017-09-08T14:07:41.578Z,5.80
2017-09-08T14:10:42.865Z,1.73
2017-09-08T14:13:44.087Z,2.70
2017-09-08T14:16:45.526Z,10.90
2017-09-08T14:19:46.770Z,3.00
2017-09-08T14:22:48.029Z,2.67
2017-09-08T14:25:49.289Z,5.30
2017-09-08T14:28:50.570Z,3.50
2017-09-08T14:31:52.586Z,1.80
2017-09-08T14:34:53.865Z,5.03
2017-09-08T14:37:55.126Z,1.73
2017-09-08T14:40:56.423Z,2.67
2017-09-08T14:43:57.703Z,4.10
2017-09-08T14:46:58.999Z,2.23
2017-09-08T14:50:01.021Z,7.10
2017-09-08T14:53:02.290Z,2.40
2017-09-08T14:56:03.539Z,2.93
2017-09-08T14:59:04.837Z,3.63
2017-09-08T15:02:06.475Z,4.23
2017-09-08T15:05:08.478Z,1.70
2017-09-08T15:08:09.898Z,3.10
2017-09-08T15:11:11.169Z,3.50
2017-09-08T15:14:12.430Z,4.33
2017-09-08T15:17:13.734Z,3.80
2017-09-08T15:20:15.764Z,2.83
2017-09-08T15:23:17.065Z,3.53
2017-09-08T15:26:18.381Z,4.00
2017-09-08T15:29:20.371Z,2.63
2017-09-08T15:32:21.661Z,3.23
2017-09-08T15:35:22.955Z,2.50
2017-09-08T15:38:24.966Z,3.90
2017-09-08T15:41:26.397Z,1.67
2017-09-08T15:44:27.623Z,3.77
2017-09-08T15:47:29.662Z,2.47
2017-09-08T15:50:30.933Z,3.27
2017-09-08T15:53:32.973Z,1.70
2017-09-08T15:56:34.202Z,3.03
2017-09-08T15:59:35.507Z,2.20
2017-09-08T16:02:37.497Z,3.70
2017-09-08T16:05:38.775Z,1.80
2017-09-08T16:08:40.074Z,3.73
2017-09-08T16:11:41.375Z,1.63
2017-09-08T16:14:42.675Z,3.93
2017-09-08T16:17:43.935Z,1.53
2017-09-08T16:20:45.205Z,1.83
2017-09-08T16:23:46.542Z,1.37
2017-09-08T16:26:47.922Z,1.50
2017-09-08T16:29:49.257Z,3.90
2017-09-08T16:32:51.393Z,2.20
2017-09-08T16:35:52.659Z,5.70
2017-09-08T16:38:53.942Z,1.67
2017-09-08T16:41:55.214Z,1.13
2017-09-08T16:44:57.246Z,3.77
2017-09-08T16:47:58.502Z,4.73
2017-09-08T16:50:59.759Z,2.73
2017-09-08T16:54:01.023Z,1.20
2017-09-08T16:57:03.116Z,0.90
2017-09-08T17:00:04.394Z,3.37
2017-09-08T17:03:05.706Z,2.30
2017-09-08T17:06:06.953Z,2.80
2017-09-08T17:09:08.362Z,1.20
2017-09-08T17:12:09.631Z,1.23
2017-09-08T17:15:11.666Z,2.30
2017-09-08T17:18:12.929Z,2.80
2017-09-08T17:21:14.204Z,3.77
2017-09-08T17:24:16.226Z,3.97
2017-09-08T17:27:17.594Z,2.07
2017-09-08T17:30:18.869Z,1.47
2017-09-08T17:33:20.905Z,2.50
2017-09-08T17:36:22.154Z,4.53
2017-09-08T17:39:23.441Z,1.53
2017-09-08T17:42:25.489Z,4.87
2017-09-08T17:45:27.522Z,1.73
2017-09-08T17:48:28.833Z,1.60
2017-09-08T17:51:30.103Z,1.60
2017-09-08T17:54:31.384Z,2.90
2017-09-08T17:57:33.450Z,3.80
2017-09-08T18:00:34.878Z,7.13
2017-09-08T18:03:36.149Z,4.10
2017-09-08T18:06:37.431Z,6.20
2017-09-08T18:09:38.685Z,3.00
2017-09-08T18:12:40.002Z,2.50
2017-09-08T18:15:41.994Z,4.07
2017-09-08T18:18:44.094Z,2.00
2017-09-08T18:21:45.331Z,1.80
2017-09-08T18:24:46.635Z,2.43
2017-09-08T18:27:47.894Z,1.83
2017-09-08T18:30:49.958Z,3.27
2017-09-08T18:33:51.939Z,2.47
2017-09-08T18:36:53.222Z,1.73
2017-09-08T18:39:54.503Z,2.53
2017-09-08T18:42:55.780Z,3.13
2017-09-08T18:45:57.787Z,3.67
2017-09-08T18:48:59.130Z,1.63
2017-09-08T18:52:00.382Z,3.30
2017-09-08T18:55:01.642Z,1.90
2017-09-08T18:58:02.970Z,1.93
2017-09-08T19:01:04.283Z,2.60
2017-09-08T19:04:06.265Z,7.30
2017-09-08T19:07:07.544Z,3.23
2017-09-08T19:10:08.986Z,11.03
2017-09-08T19:13:10.242Z,2.20
2017-09-08T19:16:11.762Z,3.57
2017-09-08T19:19:13.753Z,1.97
2017-09-08T19:22:15.079Z,2.83
2017-09-08T19:25:17.098Z,2.07
2017-09-08T19:28:18.376Z,2.60
2017-09-08T19:31:20.370Z,2.80
2017-09-08T19:34:21.649Z,2.17
2017-09-08T19:37:22.938Z,5.23
2017-09-08T19:40:24.971Z,1.90
2017-09-08T19:43:26.269Z,4.50
2017-09-08T19:46:28.288Z,2.90
2017-09-08T19:49:29.784Z,3.47
2017-09-08T19:52:31.823Z,5.37
2017-09-08T19:55:33.289Z,6.87
2017-09-08T19:58:35.275Z,4.30
2017-09-08T20:01:36.571Z,4.13
2017-09-08T20:04:37.850Z,2.50
2017-09-08T20:07:39.869Z,4.50
2017-09-08T20:10:42.073Z,2.63
2017-09-08T20:13:43.339Z,6.23
2017-09-08T20:16:45.439Z,2.20
2017-09-08T20:19:46.859Z,3.13
2017-09-08T20:22:49.856Z,1.90
2017-09-08T20:25:51.894Z,2.10
2017-09-08T20:28:53.309Z,1.83
2017-09-08T20:31:54.646Z,3.30
2017-09-08T20:34:55.957Z,2.40
2017-09-08T20:37:57.976Z,4.03
2017-09-08T20:40:59.294Z,1.73
2017-09-08T20:44:01.343Z,9.57
2017-09-08T20:47:03.428Z,4.27
2017-09-08T20:50:05.549Z,9.37
2017-09-08T20:53:06.862Z,3.53
2017-09-08T20:56:08.328Z,3.87
2017-09-08T20:59:10.387Z,2.73
2017-09-08T21:02:11.859Z,4.90
2017-09-08T21:05:13.172Z,3.03
2017-09-08T21:08:14.533Z,1.80
2017-09-08T21:11:15.863Z,1.50
2017-09-08T21:14:17.331Z,6.13
2017-09-08T21:17:18.649Z,2.00
2017-09-08T21:20:20.026Z,6.10
2017-09-08T21:23:21.322Z,16.03
2017-09-08T21:26:22.666Z,5.33
2017-09-08T21:29:24.698Z,4.93
2017-09-08T21:32:25.984Z,7.10
2017-09-08T21:35:27.298Z,2.57
2017-09-08T21:38:28.659Z,1.53
2017-09-08T21:41:29.977Z,3.50
2017-09-08T21:44:31.294Z,3.03
2017-09-08T21:47:32.609Z,3.57
2017-09-08T21:50:34.018Z,1.50
2017-09-08T21:53:35.283Z,2.90
2017-09-08T21:56:36.757Z,2.80
2017-09-08T21:59:38.062Z,2.40
2017-09-08T22:02:39.401Z,5.70
2017-09-08T22:05:40.684Z,2.90
2017-09-08T22:08:42.014Z,7.70
2017-09-08T22:11:43.282Z,6.67
2017-09-08T22:14:44.587Z,2.70
2017-09-08T22:17:46.602Z,2.20
2017-09-08T22:20:47.905Z,1.87
2017-09-08T22:23:49.326Z,3.60
2017-09-08T22:26:50.574Z,6.30
2017-09-08T22:29:51.874Z,2.27
2017-09-08T22:32:53.974Z,7.10
2017-09-08T22:35:55.489Z,3.90
2017-09-08T22:38:56.764Z,2.60
2017-09-08T22:41:58.035Z,1.83
2017-09-08T22:44:59.369Z,2.20
2017-09-08T22:48:00.643Z,3.13
2017-09-08T22:51:01.925Z,2.60
2017-09-08T22:54:04.102Z,4.67
2017-09-08T22:57:12.481Z,11.13
2017-09-08T23:00:13.755Z,2.47
2017-09-08T23:03:15.023Z,5.50
2017-09-08T23:06:16.326Z,3.13
2017-09-08T23:09:17.591Z,3.43
2017-09-08T23:12:18.885Z,3.17
2017-09-08T23:15:20.938Z,4.97
2017-09-08T23:18:22.210Z,2.73
2017-09-08T23:21:24.321Z,3.80
2017-09-08T23:24:25.603Z,9.73
2017-09-08T23:27:26.852Z,3.27
2017-09-08T23:30:28.139Z,5.90
2017-09-08T23:33:29.368Z,4.90
2017-09-08T23:36:31.778Z,3.50
2017-09-08T23:39:33.134Z,5.00
2017-09-08T23:42:34.387Z,4.77
2017-09-08T23:45:35.691Z,10.80
2017-09-08T23:48:37.767Z,7.40
2017-09-08T23:51:39.795Z,6.23
2017-09-08T23:54:41.071Z,8.73
2017-09-08T23:57:43.073Z,6.27
